Time;durP1;ratioP1;P1;durP2;ratioP2;P2;SDS_P1;SDS_P2;PMS_P1;PMS_P2;Temp;Humidity;BMP_temperature;BMP_pressure;BME280_temperature;BME280_humidity;BME280_pressure;Samples;Min_cycle;Max_cycle;Signal;HPM_P1;HPM_P2
2022/03/26 00:00:24;;;;;;;26.17;20.60;;;26.70;99.90;;;;;;1834369;76;21662;-83
2022/03/26 00:02:56;;;;;;;34.80;26.02;;;26.70;99.90;;;;;;1832007;77;21170;-83
2022/03/26 00:05:27;;;;;;;33.25;24.30;;;26.70;99.90;;;;;;1849502;76;21626;-83
2022/03/26 00:07:58;;;;;;;34.45;25.08;;;26.70;99.90;;;;;;1843017;76;21157;-83
2022/03/26 00:10:29;;;;;;;34.78;26.17;;;26.80;99.90;;;;;;1837241;76;21196;-83
2022/03/26 00:13:00;;;;;;;34.92;22.93;;;26.80;99.90;;;;;;1835360;76;21518;-83
2022/03/26 00:15:31;;;;;;;27.58;21.15;;;26.80;99.90;;;;;;1840524;76;21141;-83
2022/03/26 00:18:02;;;;;;;31.82;21.90;;;26.80;99.90;;;;;;1828861;76;21088;-83
2022/03/26 00:20:36;;;;;;;32.67;22.42;;;26.90;99.90;;;;;;1839046;76;21201;-83
2022/03/26 00:26:33;;;;;;;30.82;19.65;;;26.90;99.90;;;;;;1728702;81;21240;-84
2022/03/26 00:29:04;;;;;;;32.53;20.17;;;27.00;99.90;;;;;;1733259;81;21186;-84
2022/03/26 00:31:37;;;;;;;25.20;19.32;;;27.00;99.90;;;;;;1730134;81;21215;-82
2022/03/26 00:34:09;;;;;;;25.45;19.30;;;27.00;99.90;;;;;;1698023;83;21275;-83
2022/03/26 00:36:40;;;;;;;29.07;19.02;;;27.10;99.90;;;;;;1736230;81;21221;-83
2022/03/26 00:39:11;;;;;;;29.85;19.70;;;27.10;99.90;;;;;;1726179;81;21552;-84
2022/03/26 00:41:42;;;;;;;26.90;19.17;;;27.10;99.90;;;;;;1738144;81;21326;-83
2022/03/26 00:44:13;;;;;;;26.97;19.20;;;27.10;99.90;;;;;;1730656;81;21226;-83
2022/03/26 00:46:45;;;;;;;23.92;17.65;;;27.20;99.90;;;;;;1729181;81;21323;-83
2022/03/26 00:49:17;;;;;;;26.42;18.42;;;27.20;99.90;;;;;;1728240;81;21151;-83
2022/03/26 00:51:48;;;;;;;27.90;19.02;;;27.30;99.90;;;;;;1736202;81;21689;-83
2022/03/26 00:54:19;;;;;;;23.25;17.65;;;27.30;99.60;;;;;;1734956;81;21244;-82
2022/03/26 00:56:51;;;;;;;27.32;19.02;;;27.30;99.70;;;;;;1734185;81;21169;-80
2022/03/26 00:59:22;;;;;;;26.87;19.12;;;27.30;99.60;;;;;;1735432;81;21213;-80
2022/03/26 01:01:53;;;;;;;27.27;17.98;;;27.40;99.60;;;;;;1792343;78;21137;-80
2022/03/26 01:04:26;;;;;;;25.57;17.25;;;27.50;99.60;;;;;;1821980;76;21243;-80
2022/03/26 01:06:57;;;;;;;24.47;17.77;;;27.50;99.50;;;;;;1833274;76;21247;-80
2022/03/26 01:09:28;;;;;;;26.97;19.82;;;27.60;99.50;;;;;;1828552;76;21159;-82
2022/03/26 01:11:59;;;;;;;22.65;17.90;;;27.70;98.70;;;;;;1837974;76;21854;-82
2022/03/26 01:14:30;;;;;;;23.85;18.52;;;27.70;98.70;;;;;;1840218;76;21110;-82
2022/03/26 01:17:01;;;;;;;23.10;17.60;;;27.70;98.40;;;;;;1830001;78;21165;-80
2022/03/26 01:19:31;;;;;;;23.42;18.02;;;27.80;98.10;;;;;;1854441;76;21147;-81
2022/03/26 01:22:03;;;;;;;26.68;19.37;;;27.80;98.10;;;;;;1877500;75;21208;-82
2022/03/26 01:24:34;;;;;;;23.83;17.98;;;27.80;97.90;;;;;;1880604;76;21194;-82
2022/03/26 01:27:06;;;;;;;26.55;18.52;;;27.90;97.60;;;;;;1870972;76;21044;-81
2022/03/26 01:29:38;;;;;;;24.15;17.87;;;27.90;97.70;;;;;;1876178;76;21209;-82
2022/03/26 01:32:11;;;;;;;23.77;17.80;;;28.00;97.70;;;;;;1864806;76;21095;-82
2022/03/26 01:34:42;;;;;;;24.75;18.25;;;28.00;97.50;;;;;;1870507;75;21602;-82
2022/03/26 01:37:14;;;;;;;28.45;17.32;;;28.10;97.30;;;;;;1875056;76;21123;-82
2022/03/26 01:39:45;;;;;;;22.32;17.65;;;28.10;97.30;;;;;;1867422;76;21154;-83
2022/03/26 01:42:16;;;;;;;23.35;16.62;;;28.20;97.20;;;;;;1868347;75;21203;-82
2022/03/26 01:44:48;;;;;;;23.60;17.48;;;28.20;96.80;;;;;;1874321;76;21270;-80
2022/03/26 01:47:18;;;;;;;24.65;17.07;;;28.30;96.90;;;;;;1869520;75;21214;-72
2022/03/26 01:49:51;;;;;;;23.50;16.23;;;28.30;96.80;;;;;;1864647;75;21174;-72
2022/03/26 01:52:21;;;;;;;29.20;16.32;;;28.40;96.20;;;;;;1872501;75;21112;-72
2022/03/26 01:54:53;;;;;;;24.20;16.17;;;28.50;96.00;;;;;;1867587;75;21127;-72
2022/03/26 01:57:24;;;;;;;23.50;15.88;;;28.50;95.80;;;;;;1866509;75;21167;-73
2022/03/26 01:59:55;;;;;;;21.65;16.52;;;28.60;96.00;;;;;;1865233;76;21158;-73
2022/03/26 02:02:26;;;;;;;22.90;16.48;;;28.70;95.70;;;;;;1868268;75;21108;-72
2022/03/26 02:04:58;;;;;;;24.98;17.82;;;28.80;95.50;;;;;;1884502;74;21087;-73
2022/03/26 02:07:29;;;;;;;22.27;16.02;;;28.90;95.50;;;;;;1863318;75;21174;-72
2022/03/26 02:10:00;;;;;;;18.57;14.58;;;29.00;95.20;;;;;;1866414;75;21763;-72
2022/03/26 02:12:31;;;;;;;22.10;14.43;;;29.10;94.50;;;;;;1868120;75;21163;-72
2022/03/26 02:15:02;;;;;;;20.45;15.43;;;29.20;93.90;;;;;;1877190;74;21045;-72
2022/03/26 02:17:35;;;;;;;24.43;15.43;;;29.30;93.70;;;;;;1865631;76;21158;-72
2022/03/26 02:22:58;;;;;;;17.82;15.13;;;29.40;93.70;;;;;;1806504;77;21166;-72
2022/03/26 02:25:30;;;;;;;15.13;13.10;;;29.50;93.30;;;;;;1801072;78;21665;-71
2022/03/26 02:28:01;;;;;;;22.98;14.95;;;29.60;91.90;;;;;;1781318;79;21318;-73
2022/03/26 02:30:36;;;;;;;18.12;13.22;;;29.70;92.10;;;;;;1799670;78;21229;-73
2022/03/26 02:33:08;;;;;;;20.10;14.33;;;29.70;91.20;;;;;;1804056;77;21295;-73
2022/03/26 02:35:38;;;;;;;17.92;13.93;;;29.80;91.50;;;;;;1818615;77;21759;-73
2022/03/26 02:38:11;;;;;;;18.32;13.83;;;29.90;91.40;;;;;;1807809;77;21812;-72
2022/03/26 02:40:42;;;;;;;18.80;14.40;;;30.00;91.20;;;;;;1805590;77;21151;-72
2022/03/26 02:43:13;;;;;;;16.75;13.00;;;30.20;91.20;;;;;;1790644;79;21253;-70
2022/03/26 02:45:46;;;;;;;16.10;12.78;;;30.30;90.30;;;;;;1879574;74;21158;-71
2022/03/26 02:48:17;;;;;;;19.95;12.35;;;30.40;89.90;;;;;;1883397;74;21149;-71
2022/03/26 02:50:48;;;;;;;13.98;12.30;;;30.50;89.60;;;;;;1887124;74;21231;-72
2022/03/26 02:53:20;;;;;;;16.15;12.05;;;30.70;89.30;;;;;;1893645;73;21137;-71
2022/03/26 02:55:52;;;;;;;18.25;13.18;;;30.80;89.50;;;;;;1874403;74;21633;-71
2022/03/26 02:58:24;;;;;;;18.75;13.20;;;30.90;87.10;;;;;;1877971;75;21158;-71
2022/03/26 03:00:55;;;;;;;18.67;14.28;;;31.10;86.70;;;;;;1870359;75;21246;-71
2022/03/26 03:03:26;;;;;;;14.95;12.18;;;31.10;87.30;;;;;;1867638;75;21256;-72
2022/03/26 03:06:08;;;;;;;16.52;11.63;;;31.30;84.80;;;;;;1919063;73;21113;-71
2022/03/26 03:08:43;;;;;;;14.83;11.45;;;31.40;84.20;;;;;;1876249;74;21138;-72
2022/03/26 03:11:14;;;;;;;13.28;11.03;;;31.50;84.40;;;;;;1840525;76;21264;-71
2022/03/26 03:13:45;;;;;;;15.90;11.53;;;31.60;82.60;;;;;;1845430;76;21141;-71
2022/03/26 03:16:16;;;;;;;18.10;12.85;;;31.70;82.60;;;;;;1877734;75;21629;-71
2022/03/26 03:18:47;;;;;;;20.88;13.43;;;31.80;82.90;;;;;;1915058;73;21078;-71
2022/03/26 03:21:18;;;;;;;16.65;12.78;;;31.90;83.40;;;;;;1879105;75;21146;-71
2022/03/26 03:23:49;;;;;;;17.87;12.78;;;32.00;82.70;;;;;;1870704;75;21177;-73
2022/03/26 03:26:20;;;;;;;17.42;13.13;;;32.10;81.80;;;;;;1878799;75;21072;-73
2022/03/26 03:28:51;;;;;;;18.32;14.18;;;32.20;80.60;;;;;;1870066;75;21145;-72
2022/03/26 03:31:22;;;;;;;17.75;13.28;;;32.20;83.00;;;;;;1866726;75;21151;-73
2022/03/26 03:33:53;;;;;;;15.63;12.53;;;32.30;81.60;;;;;;1869738;75;21440;-72
2022/03/26 03:36:24;;;;;;;16.80;12.55;;;32.40;80.80;;;;;;1873414;75;21164;-71
2022/03/26 03:38:55;;;;;;;17.05;12.25;;;32.50;78.80;;;;;;1863432;75;21186;-72
2022/03/26 03:41:28;;;;;;;16.42;12.07;;;32.60;79.70;;;;;;1875464;75;21184;-72
2022/03/26 03:44:04;;;;;;;23.32;13.95;;;32.70;79.80;;;;;;1869366;75;21205;-73
2022/03/26 03:46:34;;;;;;;14.80;12.55;;;32.80;78.70;;;;;;1863786;75;21568;-72
2022/03/26 03:49:06;;;;;;;16.30;13.25;;;32.90;78.60;;;;;;1861638;75;21141;-73
2022/03/26 03:51:39;;;;;;;15.60;13.15;;;33.00;77.60;;;;;;1858982;75;21171;-73
2022/03/26 03:54:10;;;;;;;17.85;13.20;;;33.10;77.40;;;;;;1863529;75;21214;-73
2022/03/26 03:56:42;;;;;;;16.15;11.73;;;33.10;76.50;;;;;;1870887;75;21151;-73
2022/03/26 03:59:12;;;;;;;14.78;12.18;;;33.00;76.00;;;;;;1871510;75;21133;-73
2022/03/26 04:01:43;;;;;;;21.90;14.53;;;33.00;75.40;;;;;;1871559;75;21226;-74
2022/03/26 04:04:15;;;;;;;16.32;12.70;;;33.10;76.70;;;;;;1864380;75;21080;-73
2022/03/26 04:06:51;;;;;;;25.17;13.75;;;33.20;76.90;;;;;;1868678;75;21733;-72
2022/03/26 04:09:22;;;;;;;16.15;12.82;;;33.30;76.60;;;;;;1868740;75;21129;-73
2022/03/26 04:11:53;;;;;;;16.77;11.78;;;33.50;77.00;;;;;;1868077;75;21124;-72
2022/03/26 04:14:24;;;;;;;17.45;12.40;;;33.50;74.70;;;;;;1839521;76;21655;-72
2022/03/26 04:16:56;;;;;;;15.95;12.10;;;33.60;74.40;;;;;;1879775;75;21638;-72
2022/03/26 04:19:27;;;;;;;16.52;12.10;;;33.60;73.60;;;;;;1866052;75;21196;-71
2022/03/26 04:21:58;;;;;;;15.83;12.47;;;33.40;74.40;;;;;;1865777;75;21164;-72
2022/03/26 04:24:32;;;;;;;16.32;12.10;;;33.20;74.90;;;;;;1843605;76;21166;-72
2022/03/26 04:27:04;;;;;;;15.70;11.95;;;33.00;75.80;;;;;;1884621;74;21610;-72
2022/03/26 04:29:35;;;;;;;16.10;11.88;;;33.00;75.80;;;;;;1876379;75;21145;-72
2022/03/26 04:32:06;;;;;;;15.85;11.55;;;33.00;75.40;;;;;;1849435;76;21679;-71
2022/03/26 04:34:38;;;;;;;14.23;11.95;;;33.10;74.80;;;;;;1881239;74;21618;-71
2022/03/26 04:37:09;;;;;;;16.85;13.70;;;33.20;76.00;;;;;;1883925;74;21544;-72
2022/03/26 04:39:40;;;;;;;16.80;11.85;;;33.40;79.20;;;;;;1885498;74;21192;-71
2022/03/26 04:42:12;;;;;;;15.72;12.37;;;33.50;76.70;;;;;;1860267;75;21129;-71
2022/03/26 04:44:43;;;;;;;16.23;12.78;;;33.50;76.40;;;;;;1854882;75;21498;-72
2022/03/26 04:47:14;;;;;;;16.60;12.98;;;33.60;76.30;;;;;;1879441;74;21186;-72
2022/03/26 04:49:44;;;;;;;16.00;13.05;;;33.70;77.20;;;;;;1853800;76;21713;-72
2022/03/26 04:52:15;;;;;;;19.80;13.38;;;33.80;78.30;;;;;;1885287;75;21172;-72
2022/03/26 04:54:48;;;;;;;18.37;12.90;;;34.00;77.90;;;;;;1879277;74;21119;-72
2022/03/26 04:57:18;;;;;;;18.65;13.13;;;34.00;77.60;;;;;;1878331;74;21139;-71
2022/03/26 04:59:49;;;;;;;14.33;11.97;;;34.00;77.20;;;;;;1892470;74;21544;-71
2022/03/26 05:02:20;;;;;;;17.73;13.48;;;33.90;77.20;;;;;;1872909;74;21186;-72
2022/03/26 05:04:51;;;;;;;19.98;14.30;;;33.80;77.90;;;;;;1868144;74;21672;-72
2022/03/26 05:09:57;;;;;;;14.65;12.78;;;33.50;78.60;;;;;;1876597;75;22152;-73
2022/03/26 05:12:28;;;;;;;17.20;13.05;;;33.30;79.50;;;;;;1877285;75;21140;-72
2022/03/26 05:14:59;;;;;;;16.50;13.90;;;33.30;79.40;;;;;;1885838;75;21087;-73
2022/03/26 05:17:30;;;;;;;16.73;12.50;;;33.50;79.60;;;;;;1858950;76;21728;-73
2022/03/26 05:20:01;;;;;;;16.17;13.50;;;33.60;79.00;;;;;;1862723;74;21191;-72
2022/03/26 05:22:31;;;;;;;18.67;12.80;;;33.80;77.70;;;;;;1877709;74;21147;-73
2022/03/26 05:25:03;;;;;;;20.30;13.50;;;34.00;76.90;;;;;;1856675;75;21143;-73
2022/03/26 05:27:35;;;;;;;17.15;13.83;;;34.10;76.00;;;;;;1873101;75;21135;-72
2022/03/26 05:30:07;;;;;;;17.32;13.05;;;34.20;75.50;;;;;;1928239;73;21051;-74
2022/03/26 05:32:39;;;;;;;17.55;13.65;;;34.30;76.30;;;;;;1923299;73;21239;-73
2022/03/26 05:35:14;;;;;;;18.23;12.85;;;34.40;77.10;;;;;;1917095;73;21645;-72
2022/03/26 05:37:44;;;;;;;14.00;12.50;;;34.40;75.10;;;;;;1931028;73;21589;-73
2022/03/26 05:40:18;;;;;;;14.83;12.10;;;34.40;75.30;;;;;;1919686;73;21610;-73
2022/03/26 05:42:50;;;;;;;17.20;13.15;;;34.40;75.70;;;;;;1876856;74;21641;-73
2022/03/26 05:45:22;;;;;;;17.35;12.47;;;34.40;75.90;;;;;;1918897;73;21166;-72
2022/03/26 05:47:54;;;;;;;16.37;12.18;;;34.30;75.30;;;;;;1921875;73;21050;-72
2022/03/26 05:50:25;;;;;;;13.58;12.18;;;34.20;76.00;;;;;;1924911;73;21126;-73
2022/03/26 05:52:58;;;;;;;15.53;11.85;;;34.10;76.80;;;;;;1921188;73;21174;-72
2022/03/26 05:55:29;;;;;;;13.40;11.85;;;34.10;77.10;;;;;;1870130;75;21185;-72
2022/03/26 05:58:00;;;;;;;19.20;12.82;;;34.00;77.00;;;;;;1876827;74;21254;-71
2022/03/26 06:00:31;;;;;;;14.15;11.88;;;33.80;77.40;;;;;;1869115;75;21504;-71
2022/03/26 06:03:02;;;;;;;16.12;12.45;;;33.60;77.60;;;;;;1871601;75;21209;-71
2022/03/26 06:05:33;;;;;;;14.05;12.05;;;33.50;78.40;;;;;;1916055;73;21637;-71
2022/03/26 06:08:04;;;;;;;17.00;12.03;;;33.40;78.70;;;;;;1872998;75;21583;-72
2022/03/26 06:10:36;;;;;;;15.10;12.45;;;33.20;78.60;;;;;;1922723;73;21144;-72
2022/03/26 06:13:07;;;;;;;18.05;12.58;;;33.20;79.40;;;;;;1917861;73;21130;-71
2022/03/26 06:15:38;;;;;;;19.50;12.95;;;33.10;80.00;;;;;;1918664;73;21632;-74
2022/03/26 06:18:12;;;;;;;14.68;12.13;;;33.10;79.70;;;;;;1871278;75;21231;-73
2022/03/26 06:20:43;;;;;;;16.80;12.55;;;33.20;79.00;;;;;;1913591;73;21570;-73
2022/03/26 06:23:15;;;;;;;16.55;12.95;;;33.20;78.80;;;;;;1920638;73;21584;-73
2022/03/26 06:25:46;;;;;;;13.40;12.00;;;33.30;78.60;;;;;;1918177;73;21197;-73
2022/03/26 06:28:19;;;;;;;17.82;12.28;;;33.40;78.90;;;;;;1919318;73;21173;-72
2022/03/26 06:30:49;;;;;;;13.22;11.83;;;33.50;78.60;;;;;;1923774;73;21632;-73
2022/03/26 06:33:22;;;;;;;17.25;12.28;;;33.50;78.50;;;;;;1867782;74;22100;-73
2022/03/26 06:35:52;;;;;;;13.80;11.73;;;33.50;77.70;;;;;;1921568;73;21100;-72
2022/03/26 06:38:23;;;;;;;14.50;12.07;;;33.60;78.00;;;;;;1916141;73;21581;-73
2022/03/26 06:40:54;;;;;;;15.53;12.43;;;33.60;78.40;;;;;;1918104;73;21673;-72
2022/03/26 06:43:25;;;;;;;16.15;12.55;;;33.60;78.80;;;;;;1916690;73;21527;-72
2022/03/26 06:45:56;;;;;;;13.95;11.25;;;33.70;78.70;;;;;;1912808;73;21159;-72
2022/03/26 06:48:27;;;;;;;14.18;11.68;;;33.70;77.40;;;;;;1919429;73;21118;-71
2022/03/26 06:51:01;;;;;;;17.70;11.80;;;33.80;77.90;;;;;;1874195;75;21162;-71
2022/03/26 06:53:33;;;;;;;15.45;12.45;;;33.80;76.80;;;;;;1873418;74;21618;-72
2022/03/26 06:56:06;;;;;;;15.90;11.60;;;33.80;77.40;;;;;;1924108;73;21126;-71
2022/03/26 06:58:37;;;;;;;14.10;11.75;;;33.80;76.30;;;;;;1921470;73;21086;-70
2022/03/26 07:01:08;;;;;;;15.58;11.33;;;33.80;76.30;;;;;;1881256;75;21087;-71
2022/03/26 07:03:39;;;;;;;17.73;11.30;;;33.80;76.10;;;;;;1872601;74;21205;-72
2022/03/26 07:06:12;;;;;;;12.45;10.80;;;33.80;76.00;;;;;;1876202;74;21684;-73
2022/03/26 07:08:44;;;;;;;14.28;12.30;;;33.70;76.20;;;;;;1912932;73;21148;-73
2022/03/26 07:11:16;;;;;;;14.30;12.40;;;33.60;76.50;;;;;;1868450;75;21456;-73
2022/03/26 07:13:47;;;;;;;17.42;11.48;;;33.50;76.70;;;;;;1940707;73;21149;-72
2022/03/26 07:16:18;;;;;;;15.38;11.38;;;33.30;76.60;;;;;;1883069;74;21127;-72
2022/03/26 07:18:49;;;;;;;16.10;11.68;;;33.30;77.10;;;;;;1904647;73;21676;-73
2022/03/26 07:21:20;;;;;;;12.47;11.18;;;33.30;77.20;;;;;;1923587;73;21614;-73
2022/03/26 07:23:51;;;;;;;14.05;11.12;;;33.40;76.70;;;;;;1886324;75;21448;-72
2022/03/26 07:26:23;;;;;;;14.13;10.72;;;33.40;76.10;;;;;;1916636;73;21538;-72
2022/03/26 07:28:55;;;;;;;17.77;11.68;;;33.50;76.20;;;;;;1915936;73;21500;-72
2022/03/26 07:31:26;;;;;;;16.45;10.72;;;33.60;75.60;;;;;;1884731;75;21638;-73
2022/03/26 07:34:00;;;;;;;14.83;10.50;;;33.60;75.90;;;;;;1863691;75;21213;-73
2022/03/26 07:36:32;;;;;;;11.88;10.48;;;33.50;75.40;;;;;;1916574;73;21047;-73
2022/03/26 07:39:03;;;;;;;14.30;10.63;;;33.50;75.10;;;;;;1919418;73;21211;-73
2022/03/26 07:41:34;;;;;;;16.05;11.57;;;33.50;75.70;;;;;;1913461;74;21573;-72
2022/03/26 07:44:07;;;;;;;14.60;11.88;;;33.50;76.00;;;;;;1863406;75;21169;-72
2022/03/26 07:46:38;;;;;;;13.50;11.90;;;33.40;76.10;;;;;;1922999;73;21195;-71
2022/03/26 07:49:09;;;;;;;15.32;11.00;;;33.30;76.00;;;;;;1912958;73;21593;-72
2022/03/26 07:51:40;;;;;;;16.17;11.50;;;33.30;75.90;;;;;;1884276;75;21591;-72
2022/03/26 07:54:11;;;;;;;14.25;11.12;;;33.20;76.60;;;;;;1916932;74;21146;-71
2022/03/26 07:56:42;;;;;;;13.38;11.12;;;33.20;77.00;;;;;;1870221;75;21076;-71
2022/03/26 07:59:16;;;;;;;12.58;11.10;;;33.10;77.10;;;;;;1916049;73;21209;-71
2022/03/26 08:01:46;;;;;;;13.18;10.78;;;33.00;77.60;;;;;;1929764;73;21138;-71
2022/03/26 08:04:17;;;;;;;12.65;11.35;;;33.00;76.40;;;;;;1915306;73;21170;-71
2022/03/26 08:06:49;;;;;;;13.53;11.35;;;32.90;77.50;;;;;;1921175;73;21692;-71
2022/03/26 08:09:19;;;;;;;12.90;11.05;;;32.90;77.60;;;;;;1873660;74;21263;-73
2022/03/26 08:11:50;;;;;;;18.07;12.28;;;32.80;77.60;;;;;;1845350;76;21158;-72
2022/03/26 08:14:21;;;;;;;18.85;11.50;;;32.70;78.00;;;;;;1886545;74;21138;-72
2022/03/26 08:16:52;;;;;;;13.70;10.80;;;32.70;78.30;;;;;;1886051;74;21119;-71
2022/03/26 08:19:24;;;;;;;19.40;11.68;;;32.60;78.20;;;;;;1879225;75;21228;-71
2022/03/26 08:21:55;;;;;;;16.37;11.53;;;32.60;78.30;;;;;;1920699;73;21160;-73
2022/03/26 08:24:26;;;;;;;18.62;11.73;;;32.60;78.50;;;;;;1906329;73;21198;-72
2022/03/26 08:26:57;;;;;;;13.48;11.38;;;32.50;78.60;;;;;;1860859;75;21268;-72
2022/03/26 08:29:28;;;;;;;18.35;11.50;;;32.50;78.30;;;;;;1832039;77;21170;-72
2022/03/26 08:32:02;;;;;;;14.13;11.40;;;32.40;77.90;;;;;;1841289;77;21114;-72
2022/03/26 08:34:32;;;;;;;15.85;13.20;;;32.40;78.60;;;;;;1824329;77;21682;-73
2022/03/26 08:37:04;;;;;;;14.33;12.80;;;32.40;78.80;;;;;;1835848;76;21602;-73
2022/03/26 08:39:35;;;;;;;14.70;11.15;;;32.30;78.80;;;;;;1837237;76;21228;-72
2022/03/26 08:42:07;;;;;;;14.93;11.35;;;32.30;78.60;;;;;;1863601;75;21179;-74
2022/03/26 08:44:38;;;;;;;13.20;11.05;;;32.30;79.20;;;;;;1873529;75;21130;-72
2022/03/26 08:47:11;;;;;;;14.40;11.33;;;32.20;79.00;;;;;;1838111;76;21716;-71
2022/03/26 08:49:44;;;;;;;13.60;11.85;;;32.30;79.10;;;;;;1850731;76;21130;-72
2022/03/26 08:52:13;;;;;;;15.58;13.08;;;32.20;79.10;;;;;;1839424;76;21141;-74
2022/03/26 08:54:45;;;;;;;17.95;12.75;;;32.20;79.00;;;;;;1842923;76;21066;-72
2022/03/26 08:57:16;;;;;;;20.70;12.70;;;32.30;79.30;;;;;;1846192;76;21227;-70
2022/03/26 08:59:47;;;;;;;73.35;55.28;;;32.30;79.90;;;;;;1898182;73;22257;-71
2022/03/26 09:02:19;;;;;;;15.30;13.50;;;32.20;81.70;;;;;;1903218;73;21094;-71
2022/03/26 09:04:50;;;;;;;27.15;13.78;;;32.20;82.20;;;;;;1903154;73;21161;-70
2022/03/26 09:07:21;;;;;;;20.68;13.10;;;32.10;82.80;;;;;;1913138;74;21537;-72
2022/03/26 09:09:52;;;;;;;16.05;13.13;;;32.10;82.90;;;;;;1908829;73;21113;-72
2022/03/26 09:12:23;;;;;;;17.10;14.23;;;32.00;83.10;;;;;;1871270;75;21188;-71
2022/03/26 09:14:54;;;;;;;20.40;13.65;;;32.00;84.60;;;;;;1867526;75;21157;-71
2022/03/26 09:17:25;;;;;;;23.32;14.90;;;31.90;85.80;;;;;;1848734;76;21082;-72
2022/03/26 09:19:55;;;;;;;18.62;13.93;;;31.80;86.40;;;;;;1863748;75;21088;-71
2022/03/26 09:22:26;;;;;;;17.92;13.32;;;31.70;86.10;;;;;;1872698;75;21106;-72
2022/03/26 09:24:57;;;;;;;18.48;14.28;;;31.70;85.60;;;;;;1863673;75;21047;-70
2022/03/26 09:27:28;;;;;;;19.98;14.18;;;31.70;85.80;;;;;;1871102;75;21197;-72
2022/03/26 09:29:59;;;;;;;19.42;12.88;;;31.70;85.30;;;;;;1872855;75;21810;-70
2022/03/26 09:32:31;;;;;;;17.85;12.85;;;31.70;84.40;;;;;;1845581;76;21315;-72
2022/03/26 09:35:02;;;;;;;15.20;13.50;;;31.70;85.50;;;;;;1910212;73;21122;-69
2022/03/26 09:37:34;;;;;;;16.15;11.80;;;31.70;84.60;;;;;;1898458;74;21158;-73
2022/03/26 09:40:06;;;;;;;19.82;13.25;;;31.70;84.10;;;;;;1912515;73;21152;-70
2022/03/26 09:42:39;;;;;;;23.75;14.25;;;31.70;83.80;;;;;;1907093;73;21182;-72
2022/03/26 09:45:11;;;;;;;13.43;9.60;;;31.70;85.00;;;;;;1904282;74;21643;-74
2022/03/26 09:47:42;;;;;;;15.65;10.38;;;31.60;82.40;;;;;;1903477;74;21174;-72
2022/03/26 09:50:14;;;;;;;18.17;10.95;;;31.40;82.60;;;;;;1844460;76;21083;-85
2022/03/26 09:52:44;;;;;;;19.42;11.12;;;31.20;84.80;;;;;;1835674;76;21101;-85
2022/03/26 09:55:17;;;;;;;16.67;10.40;;;31.10;86.20;;;;;;1835706;76;21726;-82
2022/03/26 09:57:49;;;;;;;17.50;10.00;;;30.80;86.60;;;;;;1836457;77;21613;-84
2022/03/26 10:00:20;;;;;;;18.52;8.25;;;30.70;87.20;;;;;;1812918;76;21162;-84
2022/03/26 10:02:51;;;;;;;16.00;8.88;;;30.50;86.70;;;;;;1829172;76;22259;-84
2022/03/26 10:05:24;;;;;;;12.20;8.83;;;30.40;87.30;;;;;;1840507;76;21111;-85
2022/03/26 10:07:55;;;;;;;11.93;8.88;;;30.20;87.10;;;;;;1898881;73;21629;-86
2022/03/26 10:10:29;;;;;;;10.75;8.48;;;30.10;87.00;;;;;;1910505;74;21329;-85
2022/03/26 10:13:00;;;;;;;14.50;8.73;;;30.00;87.50;;;;;;1863942;75;21189;-85
2022/03/26 10:15:35;;;;;;;13.72;7.97;;;29.90;87.90;;;;;;1917809;75;21150;-82
2022/03/26 10:18:06;;;;;;;15.85;8.43;;;29.80;87.80;;;;;;1895119;75;21150;-84
2022/03/26 10:20:38;;;;;;;13.55;7.35;;;29.70;88.00;;;;;;1885187;75;21140;-87
2022/03/26 10:23:09;;;;;;;12.28;6.75;;;29.60;87.90;;;;;;1878874;76;21134;-82
2022/03/26 10:25:42;;;;;;;13.05;7.30;;;29.60;88.40;;;;;;1910315;73;21176;-84
2022/03/26 10:28:15;;;;;;;15.65;7.58;;;29.50;88.80;;;;;;1913346;73;21209;-84
2022/03/26 10:33:21;;;;;;;8.65;6.42;;;29.40;90.10;;;;;;1901557;74;21563;-82
2022/03/26 10:35:54;;;;;;;10.98;6.35;;;29.30;90.00;;;;;;1926426;74;21117;-85
2022/03/26 10:38:27;;;;;;;9.23;5.90;;;29.20;89.30;;;;;;1913094;74;21167;-85
2022/03/26 10:41:02;;;;;;;7.42;5.10;;;29.10;89.30;;;;;;1909723;75;21064;-85
2022/03/26 10:43:36;;;;;;;8.38;5.40;;;29.00;89.00;;;;;;1912690;73;21146;-85
2022/03/26 10:46:08;;;;;;;7.70;5.58;;;28.90;90.10;;;;;;1907880;74;21166;-86
2022/03/26 10:48:39;;;;;;;10.08;5.35;;;28.80;89.70;;;;;;1911062;74;21103;-85
2022/03/26 10:51:15;;;;;;;8.85;5.37;;;28.70;89.90;;;;;;1906600;75;21625;-86
2022/03/26 10:53:49;;;;;;;8.25;5.42;;;28.60;90.20;;;;;;1908047;75;21146;-85
2022/03/26 10:56:20;;;;;;;12.75;6.50;;;28.50;91.20;;;;;;1911327;75;21182;-85
2022/03/26 10:58:57;;;;;;;11.25;5.28;;;28.30;92.20;;;;;;1911794;75;21127;-85
2022/03/26 11:01:28;;;;;;;11.90;6.70;;;28.30;93.20;;;;;;1844871;75;21232;-84
2022/03/26 11:04:00;;;;;;;7.58;5.60;;;28.20;92.90;;;;;;1841694;78;21161;-84
2022/03/26 11:06:32;;;;;;;12.43;6.20;;;28.10;93.00;;;;;;1834494;78;21103;-85
2022/03/26 11:09:10;;;;;;;9.48;5.95;;;28.00;93.40;;;;;;1843789;77;21174;-83
2022/03/26 11:11:45;;;;;;;10.60;5.90;;;28.00;93.30;;;;;;1844054;76;21205;-84
2022/03/26 11:14:18;;;;;;;10.35;7.03;;;28.00;93.50;;;;;;1820086;78;21099;-83
2022/03/26 11:16:51;;;;;;;13.32;8.05;;;28.10;93.50;;;;;;1852290;76;21093;-84
2022/03/26 11:19:23;;;;;;;12.05;7.45;;;28.10;94.00;;;;;;1838113;78;21227;-84
2022/03/26 11:21:57;;;;;;;11.48;7.65;;;28.10;93.70;;;;;;1836094;78;21171;-85
2022/03/26 11:24:30;;;;;;;13.10;7.85;;;28.10;94.40;;;;;;1835012;77;21123;-83
2022/03/26 11:27:00;;;;;;;10.93;7.25;;;28.10;95.00;;;;;;1843702;77;21138;-84
2022/03/26 11:29:32;;;;;;;12.00;7.70;;;28.10;94.40;;;;;;1897209;73;21201;-84
2022/03/26 11:32:06;;;;;;;11.25;8.60;;;28.00;94.80;;;;;;1924469;73;21135;-84
2022/03/26 11:34:41;;;;;;;14.20;9.08;;;27.90;95.40;;;;;;1921299;73;21107;-86
2022/03/26 11:37:15;;;;;;;12.43;8.18;;;27.80;95.70;;;;;;1932305;73;21126;-83
2022/03/26 11:39:49;;;;;;;11.63;7.67;;;27.70;96.00;;;;;;1930347;73;21215;-85
2022/03/26 11:42:22;;;;;;;10.50;7.60;;;27.70;96.20;;;;;;1926027;73;21123;-83
2022/03/26 11:52:41;;;;;;;14.10;9.45;;;27.80;96.30;;;;;;1933791;73;21146;-85
2022/03/26 11:55:15;;;;;;;10.48;7.97;;;27.90;96.40;;;;;;1931217;72;21098;-84
2022/03/26 11:57:48;;;;;;;11.12;7.78;;;27.90;96.30;;;;;;1925867;73;21178;-85
2022/03/26 12:00:21;;;;;;;13.35;8.88;;;27.90;95.90;;;;;;1918829;73;21162;-86
2022/03/26 12:02:54;;;;;;;14.65;7.28;;;27.90;96.10;;;;;;1917095;73;21180;-85
2022/03/26 12:08:01;;;;;;;11.73;7.35;;;28.00;96.60;;;;;;1920764;73;21241;-85
2022/03/26 12:10:33;;;;;;;11.78;8.13;;;28.00;96.50;;;;;;1904271;75;21760;-85
2022/03/26 12:13:05;;;;;;;12.25;7.87;;;28.00;96.60;;;;;;1936020;73;21170;-85
2022/03/26 12:15:37;;;;;;;11.68;7.83;;;28.00;96.80;;;;;;1909817;73;21124;-84
2022/03/26 12:18:11;;;;;;;13.55;8.23;;;27.90;96.80;;;;;;1885512;75;21185;-85
2022/03/26 12:20:44;;;;;;;14.20;7.78;;;27.90;96.60;;;;;;1943708;73;21143;-84
2022/03/26 12:23:17;;;;;;;11.00;7.65;;;27.80;96.40;;;;;;1920838;73;21231;-84
2022/03/26 12:25:50;;;;;;;15.78;8.68;;;27.90;96.80;;;;;;1917009;73;21173;-85
2022/03/26 12:28:23;;;;;;;13.70;8.70;;;27.90;96.80;;;;;;1922715;73;21523;-84
2022/03/26 12:30:57;;;;;;;14.50;7.85;;;28.00;96.60;;;;;;1886827;74;21153;-84
2022/03/26 12:33:28;;;;;;;14.28;7.75;;;28.00;96.70;;;;;;1892266;74;21596;-85
2022/03/26 12:36:00;;;;;;;12.73;8.38;;;28.00;96.50;;;;;;1892098;75;21150;-84
2022/03/26 12:38:31;;;;;;;12.75;8.30;;;28.00;96.30;;;;;;1875683;75;21091;-84
2022/03/26 12:41:05;;;;;;;12.65;7.78;;;28.10;96.30;;;;;;1904010;75;21173;-85
2022/03/26 12:43:36;;;;;;;17.20;8.80;;;28.10;96.20;;;;;;1901307;75;21092;-83
2022/03/26 12:46:10;;;;;;;13.75;8.78;;;28.20;96.80;;;;;;1898703;75;21630;-84
2022/03/26 12:48:42;;;;;;;13.83;8.83;;;28.20;97.00;;;;;;1899690;75;21136;-84
2022/03/26 12:51:14;;;;;;;9.00;7.80;;;28.20;96.90;;;;;;1886688;75;21142;-85
2022/03/26 12:53:47;;;;;;;13.85;8.13;;;28.20;96.60;;;;;;1884250;75;21115;-85
2022/03/26 12:56:17;;;;;;;11.73;8.15;;;28.20;96.50;;;;;;1886134;74;21123;-84
2022/03/26 12:58:59;;;;;;;12.33;8.13;;;28.30;96.70;;;;;;1883662;75;21181;-85
2022/03/26 13:01:23;;;;;;;12.45;8.35;;;28.30;96.40;;;;;;1885488;74;21743;-85
2022/03/26 13:03:55;;;;;;;11.93;8.40;;;28.30;96.20;;;;;;1893713;75;21149;-84
2022/03/26 13:06:26;;;;;;;11.45;8.15;;;28.30;96.10;;;;;;1867191;75;21182;-84
2022/03/26 13:09:00;;;;;;;12.80;8.78;;;28.40;96.20;;;;;;1878877;75;21086;-84
2022/03/26 13:11:33;;;;;;;13.03;8.23;;;28.40;96.00;;;;;;1890037;75;21111;-84
2022/03/26 13:14:05;;;;;;;17.87;8.20;;;28.40;95.50;;;;;;1890199;75;21186;-83